createdAt,value
2023-11-08T00:01:30.516Z,16.60
2023-11-08T00:03:58.000Z,15.10
2023-11-08T00:06:25.468Z,18.40
2023-11-08T00:08:53.072Z,17.70
2023-11-08T00:11:24.854Z,17.50
2023-11-08T00:13:52.721Z,18.70
2023-11-08T00:16:20.158Z,14.90
2023-11-08T00:18:47.607Z,13.30
2023-11-08T00:21:15.192Z,17.20
2023-11-08T00:23:42.730Z,17.60
2023-11-08T00:26:12.164Z,17.70
2023-11-08T00:28:40.515Z,15.70
2023-11-08T00:31:08.693Z,25.00
2023-11-08T00:33:36.176Z,12.50
2023-11-08T00:36:03.998Z,13.50
2023-11-08T00:38:31.348Z,19.50
2023-11-08T00:40:59.273Z,13.40
2023-11-08T00:43:26.880Z,18.40
2023-11-08T00:45:54.983Z,15.50
2023-11-08T00:48:24.960Z,14.30
2023-11-08T00:50:54.854Z,17.30
2023-11-08T00:53:23.013Z,17.00
2023-11-08T00:55:50.900Z,18.60
2023-11-08T00:58:18.341Z,17.20
2023-11-08T01:00:46.202Z,25.10
2023-11-08T01:03:14.472Z,16.90
2023-11-08T01:05:42.427Z,18.90
2023-11-08T01:08:13.262Z,17.20
2023-11-08T01:10:44.409Z,17.40
2023-11-08T01:13:14.361Z,16.70
2023-11-08T01:15:41.817Z,17.90
2023-11-08T01:18:09.853Z,14.50
2023-11-08T01:20:38.592Z,14.00
2023-11-08T01:23:05.974Z,15.20
2023-11-08T01:25:33.554Z,14.80
2023-11-08T01:28:01.312Z,20.20
2023-11-08T01:30:28.844Z,19.30
2023-11-08T01:32:58.679Z,16.00
2023-11-08T01:35:26.368Z,16.70
2023-11-08T01:37:53.770Z,15.80
2023-11-08T01:40:22.336Z,19.70
2023-11-08T01:42:49.775Z,17.90
2023-11-08T01:45:18.007Z,20.00
2023-11-08T01:47:45.742Z,19.60
2023-11-08T01:50:13.227Z,24.60
2023-11-08T01:52:40.655Z,24.50
2023-11-08T01:55:08.825Z,20.80
2023-11-08T01:57:37.127Z,21.40
2023-11-08T02:00:06.619Z,20.10
2023-11-08T02:02:40.810Z,21.20
2023-11-08T02:05:08.765Z,21.10
2023-11-08T02:09:06.462Z,20.10
2023-11-08T02:11:34.478Z,19.30
2023-11-08T02:14:02.966Z,17.80
2023-11-08T02:16:33.925Z,21.30
2023-11-08T02:19:01.413Z,18.10
2023-11-08T02:21:28.938Z,21.30
2023-11-08T02:23:56.510Z,18.10
2023-11-08T02:26:24.073Z,15.80
2023-11-08T02:28:51.943Z,17.90
2023-11-08T02:31:19.602Z,20.60
2023-11-08T02:33:47.063Z,18.00
2023-11-08T02:36:15.449Z,20.00
2023-11-08T02:38:43.057Z,16.10
2023-11-08T02:41:10.479Z,17.10
2023-11-08T02:43:37.902Z,16.10
2023-11-08T02:46:05.693Z,14.90
2023-11-08T02:48:33.824Z,16.40
2023-11-08T02:51:02.027Z,16.30
2023-11-08T02:53:30.228Z,15.60
2023-11-08T02:55:58.126Z,18.60
2023-11-08T02:58:25.470Z,18.40
2023-11-08T03:00:56.063Z,16.60
2023-11-08T03:03:23.673Z,19.30
2023-11-08T03:05:51.845Z,15.80
2023-11-08T03:08:19.888Z,16.60
2023-11-08T03:10:47.362Z,16.40
2023-11-08T03:13:16.177Z,17.00
2023-11-08T03:15:43.892Z,21.30
2023-11-08T03:18:11.416Z,14.20
2023-11-08T03:20:40.348Z,18.00
2023-11-08T03:23:08.282Z,15.70
2023-11-08T03:25:35.703Z,18.80
2023-11-08T03:28:03.517Z,19.00
2023-11-08T03:30:31.006Z,17.10
2023-11-08T03:32:59.434Z,18.60
2023-11-08T03:35:26.937Z,18.80
2023-11-08T03:37:56.342Z,18.60
2023-11-08T03:40:23.737Z,16.40
2023-11-08T03:42:51.495Z,19.50
2023-11-08T03:45:18.998Z,25.70
2023-11-08T03:47:46.394Z,26.00
2023-11-08T03:50:13.880Z,34.60
2023-11-08T03:52:41.311Z,56.90
2023-11-08T03:55:09.570Z,43.40
2023-11-08T03:57:37.379Z,52.50
2023-11-08T04:00:06.154Z,35.40
2023-11-08T04:02:37.804Z,39.10
2023-11-08T04:05:05.542Z,26.60
2023-11-08T04:07:33.054Z,32.90
2023-11-08T04:10:00.523Z,36.80
2023-11-08T04:12:28.384Z,24.10
2023-11-08T04:14:55.918Z,28.40
2023-11-08T04:17:23.379Z,28.60
2023-11-08T04:19:50.950Z,24.00
2023-11-08T04:22:19.158Z,24.60
2023-11-08T04:24:46.722Z,25.90
2023-11-08T04:27:14.335Z,22.40
2023-11-08T04:29:43.269Z,36.00
2023-11-08T04:32:10.813Z,23.50
2023-11-08T04:34:38.321Z,25.10
2023-11-08T04:37:10.941Z,23.80
2023-11-08T04:39:38.825Z,24.90
2023-11-08T04:42:07.350Z,32.30
2023-11-08T04:44:35.250Z,27.20
2023-11-08T04:47:03.088Z,27.30
2023-11-08T04:49:30.559Z,27.60
2023-11-08T04:51:58.042Z,22.30
2023-11-08T04:54:26.116Z,29.90
2023-11-08T04:56:54.376Z,24.50
2023-11-08T04:59:21.742Z,27.60
2023-11-08T05:01:49.296Z,25.40
2023-11-08T05:04:16.695Z,26.60
2023-11-08T05:06:44.230Z,26.50
2023-11-08T05:09:16.701Z,26.10
2023-11-08T05:11:44.428Z,21.90
2023-11-08T05:14:12.907Z,23.00
2023-11-08T05:16:40.984Z,25.40
2023-11-08T05:19:08.659Z,21.70
2023-11-08T05:21:36.247Z,29.20
2023-11-08T05:24:03.768Z,20.50
2023-11-08T05:26:31.101Z,21.30
2023-11-08T05:28:58.447Z,20.50
2023-11-08T05:31:25.866Z,21.30
2023-11-08T05:33:54.244Z,25.60
2023-11-08T05:36:21.698Z,23.40
2023-11-08T05:38:49.230Z,22.50
2023-11-08T05:41:20.650Z,19.40
2023-11-08T05:43:48.166Z,22.80
2023-11-08T05:46:15.596Z,24.70
2023-11-08T05:48:43.246Z,21.10
2023-11-08T05:51:10.620Z,28.50
2023-11-08T05:53:39.012Z,22.90
2023-11-08T05:56:07.812Z,28.50
2023-11-08T05:58:36.929Z,29.20
2023-11-08T06:01:06.122Z,29.70
2023-11-08T06:03:33.548Z,33.40
2023-11-08T06:06:01.134Z,26.60
2023-11-08T06:08:28.557Z,27.70
2023-11-08T06:10:55.953Z,26.00
2023-11-08T06:13:23.871Z,32.00
2023-11-08T06:15:51.413Z,32.50
2023-11-08T06:18:21.888Z,44.10
2023-11-08T06:20:49.547Z,44.40
2023-11-08T06:23:16.989Z,44.50
2023-11-08T06:25:45.237Z,49.50
2023-11-08T06:28:12.989Z,48.00
2023-11-08T06:30:40.728Z,50.80
2023-11-08T06:33:09.142Z,42.30
2023-11-08T06:35:39.023Z,50.70
2023-11-08T06:38:06.431Z,40.60
2023-11-08T06:40:33.774Z,37.80
2023-11-08T06:43:01.299Z,43.10
2023-11-08T06:45:28.714Z,34.30
2023-11-08T06:47:56.191Z,34.20
2023-11-08T06:50:23.654Z,39.00
2023-11-08T06:52:51.007Z,41.60
2023-11-08T06:55:23.325Z,37.50
2023-11-08T06:58:03.331Z,33.20
2023-11-08T07:00:30.924Z,27.20
2023-11-08T07:02:58.562Z,31.30
2023-11-08T07:05:30.405Z,38.30
2023-11-08T07:08:04.223Z,37.40
2023-11-08T07:10:31.674Z,40.20
2023-11-08T07:12:59.175Z,40.50
2023-11-08T07:15:28.076Z,45.90
2023-11-08T07:17:55.691Z,35.70
2023-11-08T07:20:23.658Z,40.40
2023-11-08T07:22:51.092Z,40.10
2023-11-08T07:25:19.180Z,41.00
2023-11-08T07:27:46.635Z,40.10
2023-11-08T07:30:16.191Z,35.10
2023-11-08T07:32:47.372Z,33.40
2023-11-08T07:35:15.131Z,30.70
2023-11-08T07:37:42.555Z,29.30
2023-11-08T07:40:13.862Z,27.50
2023-11-08T07:42:42.068Z,27.20
2023-11-08T07:45:10.577Z,27.30
2023-11-08T07:47:38.224Z,27.70
2023-11-08T07:50:07.779Z,29.10
2023-11-08T07:52:35.310Z,33.00
2023-11-08T07:55:02.887Z,35.10
2023-11-08T07:57:30.369Z,37.00
2023-11-08T07:59:57.791Z,30.30
2023-11-08T08:02:25.270Z,30.30
2023-11-08T08:04:55.379Z,35.60
2023-11-08T08:07:22.959Z,25.60
2023-11-08T08:09:50.443Z,33.70
2023-11-08T08:12:17.884Z,34.60
2023-11-08T08:14:45.303Z,26.90
2023-11-08T08:17:14.104Z,25.80
2023-11-08T08:19:42.377Z,33.40
2023-11-08T08:22:10.024Z,25.50
2023-11-08T08:24:37.710Z,28.40
2023-11-08T08:27:05.489Z,26.40
2023-11-08T08:29:33.311Z,34.40
2023-11-08T08:32:00.777Z,30.60
2023-11-08T08:34:31.616Z,30.50
2023-11-08T08:37:00.051Z,27.40
2023-11-08T08:39:29.821Z,26.80
2023-11-08T08:41:58.307Z,27.90
2023-11-08T08:44:25.763Z,31.60
2023-11-08T08:46:53.460Z,32.60
2023-11-08T08:49:23.005Z,28.60
2023-11-08T08:51:51.367Z,28.20
2023-11-08T08:54:22.782Z,26.40
2023-11-08T08:56:50.843Z,25.10
2023-11-08T08:59:18.261Z,28.80
2023-11-08T09:01:45.774Z,22.70
2023-11-08T09:04:13.600Z,22.20
2023-11-08T09:06:41.266Z,23.50
2023-11-08T09:09:14.515Z,22.80
2023-11-08T09:11:42.225Z,29.10
2023-11-08T09:14:10.113Z,30.20
2023-11-08T09:16:39.589Z,31.70
2023-11-08T09:19:11.476Z,25.50
2023-11-08T09:21:39.370Z,23.00
2023-11-08T09:24:08.130Z,21.70
2023-11-08T09:26:41.655Z,27.90
2023-11-08T09:29:09.484Z,27.00
2023-11-08T09:31:38.479Z,29.90
2023-11-08T09:34:06.096Z,28.60
2023-11-08T09:36:34.271Z,32.20
2023-11-08T09:39:02.327Z,32.70
2023-11-08T09:41:29.957Z,27.70
2023-11-08T09:43:57.525Z,24.20
2023-11-08T09:46:26.223Z,24.50
2023-11-08T09:48:55.846Z,26.90
2023-11-08T09:51:23.464Z,32.90
2023-11-08T09:53:51.436Z,27.60
2023-11-08T09:56:18.882Z,28.20
2023-11-08T09:58:49.319Z,25.70
2023-11-08T10:01:17.426Z,26.90
2023-11-08T10:03:45.771Z,25.90
2023-11-08T10:06:13.688Z,32.00
2023-11-08T10:08:41.240Z,29.80
2023-11-08T10:11:08.730Z,31.60
2023-11-08T10:13:49.954Z,28.70
2023-11-08T10:16:18.644Z,30.10
2023-11-08T10:19:36.064Z,30.80
2023-11-08T10:21:50.604Z,34.00
2023-11-08T10:24:18.491Z,32.90
2023-11-08T10:26:47.585Z,35.20
2023-11-08T10:29:15.653Z,33.70
2023-11-08T10:31:43.538Z,33.80
2023-11-08T10:34:12.610Z,31.40
2023-11-08T10:36:40.838Z,28.70
2023-11-08T10:39:16.803Z,30.10
2023-11-08T10:41:45.049Z,31.30
2023-11-08T10:44:23.454Z,28.70
2023-11-08T10:47:02.141Z,30.00
2023-11-08T10:49:29.615Z,30.50
2023-11-08T10:51:58.265Z,36.50
2023-11-08T10:54:26.265Z,32.70
2023-11-08T10:56:53.818Z,33.00
2023-11-08T10:59:21.389Z,29.60
2023-11-08T11:01:48.932Z,31.10
2023-11-08T11:04:16.955Z,28.90
2023-11-08T11:06:44.758Z,32.60
2023-11-08T11:09:12.504Z,33.50
2023-11-08T11:11:43.906Z,31.30
2023-11-08T11:14:38.980Z,29.80
2023-11-08T11:17:31.439Z,29.00
2023-11-08T11:20:02.282Z,28.30
2023-11-08T11:22:29.722Z,30.80
2023-11-08T11:24:58.507Z,27.30
2023-11-08T11:27:35.317Z,27.20
2023-11-08T11:30:15.388Z,29.60
2023-11-08T11:32:48.348Z,33.70
2023-11-08T11:35:19.936Z,27.30
2023-11-08T11:38:11.593Z,28.70
2023-11-08T11:40:49.938Z,34.70
2023-11-08T11:43:33.779Z,33.80
2023-11-08T11:46:03.376Z,30.30
2023-11-08T11:48:34.846Z,33.10
2023-11-08T11:51:03.255Z,39.60
2023-11-08T11:53:31.663Z,34.00
2023-11-08T11:56:06.645Z,41.10
2023-11-08T11:58:34.114Z,35.60
2023-11-08T12:01:01.647Z,40.40
2023-11-08T12:03:29.166Z,36.70
2023-11-08T12:05:56.833Z,33.20
2023-11-08T12:08:25.348Z,27.30
2023-11-08T12:10:52.787Z,27.20
2023-11-08T12:13:20.221Z,24.80
2023-11-08T12:16:00.618Z,23.60
2023-11-08T12:18:28.200Z,23.10
2023-11-08T12:20:55.644Z,22.20
2023-11-08T12:23:23.513Z,24.10
2023-11-08T12:25:51.820Z,21.50
2023-11-08T12:28:19.210Z,18.70
2023-11-08T12:30:47.372Z,18.70
2023-11-08T12:33:15.633Z,21.90
2023-11-08T12:35:43.662Z,23.60
2023-11-08T12:38:11.115Z,23.70
2023-11-08T12:40:38.680Z,22.40
2023-11-08T12:43:56.796Z,22.60
2023-11-08T12:46:36.141Z,23.00
2023-11-08T12:49:01.593Z,19.70
2023-11-08T12:51:31.021Z,23.30
2023-11-08T12:53:58.547Z,18.30
2023-11-08T12:56:25.975Z,19.50
2023-11-08T12:58:53.419Z,18.10
2023-11-08T13:01:21.063Z,17.30
2023-11-08T13:03:48.702Z,17.40
2023-11-08T13:06:16.151Z,17.30
2023-11-08T13:08:53.885Z,17.50
2023-11-08T13:11:21.363Z,16.20
2023-11-08T13:13:49.111Z,19.30
2023-11-08T13:16:16.564Z,17.50
2023-11-08T13:18:44.329Z,22.50
2023-11-08T13:21:11.765Z,22.40
2023-11-08T13:24:01.576Z,22.30
2023-11-08T13:26:26.869Z,35.50
2023-11-08T13:28:54.314Z,34.70
2023-11-08T13:31:21.747Z,34.20
2023-11-08T13:33:49.567Z,27.30
2023-11-08T13:36:17.287Z,31.60
2023-11-08T13:38:44.734Z,30.30
2023-11-08T13:41:12.249Z,29.20
2023-11-08T13:43:39.776Z,29.30
2023-11-08T13:46:08.996Z,33.10
2023-11-08T13:48:36.985Z,27.30
2023-11-08T13:51:07.968Z,25.70
2023-11-08T13:53:35.898Z,25.70
2023-11-08T13:56:04.118Z,27.30
2023-11-08T13:58:34.930Z,29.80
2023-11-08T14:01:08.857Z,27.40
2023-11-08T14:03:37.487Z,31.80
2023-11-08T14:06:07.632Z,21.60
2023-11-08T14:08:35.517Z,24.30
2023-11-08T14:11:03.166Z,23.30
2023-11-08T14:13:30.714Z,27.20
2023-11-08T14:15:58.265Z,18.60
2023-11-08T14:18:25.899Z,19.20
2023-11-08T14:20:56.065Z,19.90
2023-11-08T14:23:23.626Z,18.70
2023-11-08T14:26:51.989Z,17.40
2023-11-08T14:29:27.705Z,17.90
2023-11-08T14:32:01.511Z,18.10
2023-11-08T14:34:31.955Z,15.70
2023-11-08T14:36:59.801Z,16.20
2023-11-08T14:39:27.349Z,14.60
2023-11-08T14:41:54.773Z,15.50
2023-11-08T14:44:22.321Z,14.80
2023-11-08T14:46:50.063Z,14.80
2023-11-08T14:49:17.635Z,13.40
2023-11-08T14:51:48.808Z,14.50
2023-11-08T14:54:16.911Z,15.00
2023-11-08T14:56:44.401Z,13.30
2023-11-08T14:59:11.886Z,14.00
2023-11-08T15:01:39.447Z,15.80
2023-11-08T15:04:09.496Z,13.10
2023-11-08T15:06:37.381Z,14.50
2023-11-08T15:09:51.953Z,12.70
2023-11-08T15:11:52.934Z,14.00
2023-11-08T15:14:21.186Z,17.00
2023-11-08T15:16:48.712Z,13.90
2023-11-08T15:19:16.190Z,14.10
2023-11-08T15:21:43.826Z,13.20
2023-11-08T15:24:11.386Z,16.00
2023-11-08T15:26:39.255Z,14.40
2023-11-08T15:29:06.826Z,16.80
2023-11-08T15:31:34.350Z,14.10
2023-11-08T15:34:02.415Z,16.50
2023-11-08T15:36:29.913Z,20.00
2023-11-08T15:38:57.406Z,15.60
2023-11-08T15:41:25.170Z,15.20
2023-11-08T15:43:53.719Z,18.70
2023-11-08T15:46:22.124Z,16.70
2023-11-08T15:48:50.329Z,17.70
2023-11-08T15:51:18.423Z,19.50
2023-11-08T15:53:46.220Z,19.30
2023-11-08T15:56:14.386Z,14.60
2023-11-08T15:58:42.044Z,14.50
2023-11-08T16:01:09.575Z,14.80
2023-11-08T16:03:37.918Z,16.90
2023-11-08T16:06:05.797Z,14.60
2023-11-08T16:08:33.635Z,15.50
2023-11-08T16:11:01.117Z,17.20
2023-11-08T16:13:28.662Z,11.30
2023-11-08T16:15:56.242Z,12.40
2023-11-08T16:18:24.794Z,11.20
2023-11-08T16:20:52.445Z,14.60
2023-11-08T16:23:21.399Z,17.10
2023-11-08T16:25:49.287Z,17.40
2023-11-08T16:28:16.936Z,16.50
2023-11-08T16:31:00.800Z,17.60
2023-11-08T16:33:34.354Z,18.30
2023-11-08T16:36:02.466Z,17.10
2023-11-08T16:38:30.030Z,14.60
2023-11-08T16:40:58.058Z,16.50
2023-11-08T16:45:59.327Z,17.30
2023-11-08T16:48:27.367Z,16.60
2023-11-08T16:50:54.838Z,19.10
2023-11-08T16:53:22.382Z,18.50
2023-11-08T16:55:49.815Z,17.90
2023-11-08T16:58:19.175Z,18.60
2023-11-08T17:00:47.987Z,16.50
2023-11-08T17:03:17.837Z,18.30
2023-11-08T17:05:45.964Z,16.40
2023-11-08T17:08:13.707Z,18.80
2023-11-08T17:10:41.188Z,16.20
2023-11-08T17:13:10.869Z,17.30
2023-11-08T17:15:41.019Z,16.30
2023-11-08T17:18:09.069Z,14.60
2023-11-08T17:20:36.583Z,12.20
2023-11-08T17:23:04.086Z,12.80
2023-11-08T17:25:31.511Z,11.70
2023-11-08T17:27:59.359Z,12.40
2023-11-08T17:30:26.913Z,15.10
2023-11-08T17:32:55.392Z,11.50
2023-11-08T17:35:22.923Z,13.50
2023-11-08T17:37:50.559Z,9.70
2023-11-08T17:40:18.490Z,11.60
2023-11-08T17:42:46.023Z,10.50
2023-11-08T17:45:13.648Z,11.50
2023-11-08T17:47:42.304Z,11.50
2023-11-08T17:50:10.816Z,16.20
2023-11-08T17:52:38.311Z,11.30
2023-11-08T17:55:06.234Z,11.30
2023-11-08T17:57:33.717Z,18.90
2023-11-08T18:00:01.319Z,14.90
2023-11-08T18:02:32.105Z,14.90
2023-11-08T18:05:00.862Z,12.90
2023-11-08T18:07:28.355Z,13.70
2023-11-08T18:09:56.735Z,19.80
2023-11-08T18:12:24.586Z,18.90
2023-11-08T18:14:51.987Z,14.50
2023-11-08T18:17:19.475Z,15.00
2023-11-08T18:19:47.347Z,17.10
2023-11-08T18:22:15.139Z,18.70
2023-11-08T18:24:42.563Z,17.90
2023-11-08T18:27:10.149Z,18.90
2023-11-08T18:29:37.603Z,16.00
2023-11-08T18:32:05.071Z,17.50
2023-11-08T18:34:32.592Z,19.90
2023-11-08T18:37:00.161Z,22.70
2023-11-08T18:39:27.698Z,16.80
2023-11-08T18:41:55.222Z,17.40
2023-11-08T18:44:23.151Z,17.00
2023-11-08T18:46:52.157Z,19.40
2023-11-08T18:49:19.725Z,18.90
2023-11-08T18:51:48.222Z,19.20
2023-11-08T18:54:15.797Z,18.00
2023-11-08T18:56:43.795Z,19.50
2023-11-08T18:59:13.479Z,18.40
2023-11-08T19:01:41.426Z,17.30
2023-11-08T19:04:09.757Z,19.20
2023-11-08T19:06:42.085Z,19.20
2023-11-08T19:09:09.603Z,19.20
2023-11-08T19:11:37.014Z,18.90
2023-11-08T19:14:04.652Z,15.20
2023-11-08T19:16:32.319Z,17.00
2023-11-08T19:19:00.042Z,18.00
2023-11-08T19:21:28.634Z,13.70
2023-11-08T19:23:56.320Z,15.00
2023-11-08T19:26:23.949Z,14.80
2023-11-08T19:28:52.568Z,16.40
2023-11-08T19:31:20.284Z,16.40
2023-11-08T19:33:47.859Z,17.80
2023-11-08T19:36:15.372Z,8.90
2023-11-08T19:38:43.838Z,10.80
2023-11-08T19:41:12.164Z,11.70
2023-11-08T19:43:39.680Z,14.30
2023-11-08T19:46:08.145Z,10.90
2023-11-08T19:48:35.634Z,13.20
2023-11-08T19:51:03.228Z,17.00
2023-11-08T19:53:31.815Z,12.30
2023-11-08T19:56:06.501Z,15.20
2023-11-08T19:58:34.640Z,16.10
2023-11-08T20:01:03.354Z,13.10
2023-11-08T20:03:30.768Z,13.20
2023-11-08T20:05:58.606Z,11.00
2023-11-08T20:08:26.184Z,10.20
2023-11-08T20:10:54.488Z,10.50
2023-11-08T20:13:22.803Z,9.40
2023-11-08T20:15:50.334Z,9.80
2023-11-08T20:18:17.862Z,9.00
2023-11-08T20:20:46.773Z,10.00
2023-11-08T20:23:14.192Z,10.90
2023-11-08T20:25:41.896Z,11.70
2023-11-08T20:28:10.176Z,9.00
2023-11-08T20:30:38.267Z,11.90
2023-11-08T20:33:07.000Z,11.70
2023-11-08T20:35:35.193Z,8.70
2023-11-08T20:38:03.313Z,15.10
2023-11-08T20:40:30.815Z,10.90
2023-11-08T20:42:58.578Z,12.00
2023-11-08T20:45:26.256Z,14.60
2023-11-08T20:47:53.762Z,16.10
2023-11-08T20:50:22.597Z,19.00
2023-11-08T20:52:50.043Z,13.70
2023-11-08T20:55:17.564Z,9.10
2023-11-08T20:57:45.734Z,15.60
2023-11-08T21:00:14.551Z,12.20
2023-11-08T21:02:42.395Z,12.90
2023-11-08T21:05:10.415Z,11.40
2023-11-08T21:07:37.782Z,12.20
2023-11-08T21:10:06.433Z,15.90
2023-11-08T21:12:33.937Z,12.80
2023-11-08T21:15:01.442Z,16.00
2023-11-08T21:17:28.868Z,15.70
2023-11-08T21:19:56.354Z,16.80
2023-11-08T21:22:23.941Z,11.10
2023-11-08T21:24:51.411Z,12.40
2023-11-08T21:27:18.905Z,12.50
2023-11-08T21:29:46.433Z,13.20
2023-11-08T21:32:14.375Z,13.80
2023-11-08T21:34:43.662Z,13.50
2023-11-08T21:37:12.302Z,16.10
2023-11-08T21:39:42.218Z,12.00
2023-11-08T21:42:09.676Z,16.30
2023-11-08T21:44:37.030Z,13.10
2023-11-08T21:47:05.935Z,16.40
2023-11-08T21:49:34.146Z,11.30
2023-11-08T21:52:01.754Z,13.30
2023-11-08T21:54:29.510Z,12.90
2023-11-08T21:56:56.969Z,13.70
2023-11-08T21:59:24.564Z,13.10
2023-11-08T22:01:51.953Z,14.60
2023-11-08T22:04:19.395Z,14.70
2023-11-08T22:06:46.945Z,16.40
2023-11-08T22:09:14.381Z,13.20
2023-11-08T22:11:42.236Z,16.10
2023-11-08T22:14:09.690Z,14.90
2023-11-08T22:16:40.501Z,16.70
2023-11-08T22:19:09.986Z,14.40
2023-11-08T22:21:42.623Z,15.60
2023-11-08T22:24:11.090Z,14.40
2023-11-08T22:26:38.459Z,14.30
2023-11-08T22:29:06.748Z,19.10
2023-11-08T22:31:36.145Z,16.30
2023-11-08T22:34:03.948Z,14.50
2023-11-08T22:36:33.278Z,17.10
2023-11-08T22:39:02.209Z,14.10
2023-11-08T22:41:29.813Z,14.40
2023-11-08T22:43:57.218Z,16.50
2023-11-08T22:46:31.690Z,10.90
2023-11-08T22:48:59.643Z,12.00
2023-11-08T22:51:28.407Z,12.60
2023-11-08T22:53:55.884Z,14.50
2023-11-08T22:56:24.180Z,12.90
2023-11-08T22:58:51.679Z,14.90
2023-11-08T23:01:33.896Z,15.50
2023-11-08T23:04:04.893Z,13.20
2023-11-08T23:06:32.828Z,13.30
2023-11-08T23:09:03.832Z,10.60
2023-11-08T23:11:32.281Z,12.90
2023-11-08T23:14:00.115Z,14.70
2023-11-08T23:16:28.354Z,13.00
2023-11-08T23:18:56.150Z,11.60
2023-11-08T23:21:23.800Z,15.40
2023-11-08T23:23:52.719Z,9.20
2023-11-08T23:26:20.541Z,10.20
2023-11-08T23:28:48.024Z,10.00
2023-11-08T23:31:15.567Z,9.60
2023-11-08T23:33:43.115Z,9.10
2023-11-08T23:36:13.604Z,10.00
2023-11-08T23:38:44.794Z,10.60
2023-11-08T23:41:12.139Z,10.40
2023-11-08T23:43:39.871Z,10.00
2023-11-08T23:46:07.407Z,12.40
2023-11-08T23:48:34.939Z,10.70
2023-11-08T23:51:02.513Z,10.30
2023-11-08T23:53:29.928Z,11.00
2023-11-08T23:55:58.672Z,11.10
2023-11-08T23:58:26.003Z,10.90
